Time;durP1;ratioP1;P1;durP2;ratioP2;P2;SDS_P1;SDS_P2;PMS_P1;PMS_P2;Temp;Humidity;BMP_temperature;BMP_pressure;BME280_temperature;BME280_humidity;BME280_pressure;Samples;Min_cycle;Max_cycle;Signal;HPM_P1;HPM_P2
2022/11/02 08:01:41;;;;;;;7.75;2.80;;;;;;;11.53;80.89;101771.91;5279196;28;20398;-67
2022/11/02 08:04:12;;;;;;;13.02;3.60;;;;;;;11.55;81.41;101754.94;5279742;28;20033;-67
2022/11/02 08:06:43;;;;;;;8.88;3.17;;;;;;;11.61;81.82;101765.00;5272046;28;20373;-68
2022/11/02 08:09:14;;;;;;;94.53;10.13;;;;;;;11.96;86.39;101760.59;5258104;28;20021;-72
2022/11/02 08:11:46;;;;;;;11.63;2.60;;;;;;;11.86;83.18;101761.47;5259133;28;20476;-74
2022/11/02 08:14:17;;;;;;;12.43;3.95;;;;;;;11.82;80.45;101765.03;5258946;28;20357;-74
2022/11/02 08:16:51;;;;;;;8.93;2.20;;;;;;;11.84;80.16;101773.94;5258375;28;20032;-74
2022/11/02 08:19:22;;;;;;;8.93;2.90;;;;;;;11.83;79.94;101775.03;5258000;28;21905;-75
2022/11/02 08:21:55;;;;;;;9.77;3.15;;;;;;;11.90;80.40;101773.66;5259699;28;20048;-74
2022/11/02 08:24:26;;;;;;;8.10;3.55;;;;;;;11.89;80.00;101776.75;5256510;28;20025;-73
2022/11/02 08:26:57;;;;;;;12.30;2.90;;;;;;;11.85;79.58;101770.03;5258751;28;20029;-75
2022/11/02 08:29:28;;;;;;;8.25;3.53;;;;;;;11.90;79.65;101778.41;5258261;28;20025;-74
2022/11/02 08:32:00;;;;;;;11.18;2.53;;;;;;;11.91;79.50;101780.91;5256788;28;20041;-75
2022/11/02 08:34:31;;;;;;;13.88;3.33;;;;;;;11.98;79.92;101790.91;5257884;28;20040;-75
2022/11/02 08:37:02;;;;;;;12.68;3.30;;;;;;;12.03;80.06;101788.16;5257577;28;20017;-74
2022/11/02 08:39:34;;;;;;;13.70;3.15;;;;;;;12.04;79.05;101781.47;5258122;28;20048;-74
2022/11/02 08:42:05;;;;;;;9.48;3.15;;;;;;;12.06;79.21;101798.72;5258438;28;20030;-73
2022/11/02 08:44:36;;;;;;;8.00;2.53;;;;;;;12.08;78.39;101802.88;5257358;28;20374;-76
2022/11/02 08:47:08;;;;;;;11.90;2.90;;;;;;;12.11;77.96;101793.16;5257554;28;20475;-76
2022/11/02 08:49:39;;;;;;;8.07;2.92;;;;;;;12.14;78.64;101806.50;5257627;28;20111;-75
2022/11/02 08:52:10;;;;;;;14.00;3.53;;;;;;;12.16;78.62;101805.09;5256938;28;20091;-75
2022/11/02 08:54:42;;;;;;;10.95;2.90;;;;;;;12.18;77.60;101802.06;5256947;28;20025;-75
2022/11/02 08:57:13;;;;;;;11.70;3.58;;;;;;;12.21;77.33;101807.06;5257787;28;20090;-76
2022/11/02 08:59:44;;;;;;;11.25;3.15;;;;;;;12.22;77.62;101819.00;5257146;28;20045;-75
2022/11/02 09:02:16;;;;;;;10.65;3.42;;;;;;;12.19;77.23;101812.06;5257077;28;20028;-75
2022/11/02 09:04:47;;;;;;;8.30;4.00;;;;;;;12.22;77.70;101813.44;5265478;28;20019;-74
2022/11/02 09:07:18;;;;;;;12.43;2.92;;;;;;;12.20;77.07;101810.97;5257030;28;20025;-76
2022/11/02 09:09:50;;;;;;;9.27;3.42;;;;;;;12.23;76.67;101818.75;5257790;28;20112;-78
2022/11/02 09:12:21;;;;;;;12.57;3.20;;;;;;;12.35;77.32;101812.94;5246890;28;20028;-79
2022/11/02 09:14:52;;;;;;;11.73;3.13;;;;;;;12.39;76.26;101809.28;5242606;28;20494;-78
2022/11/02 09:17:23;;;;;;;7.90;2.80;;;;;;;12.37;76.19;101821.81;5241355;28;20114;-78
2022/11/02 09:19:55;;;;;;;9.02;4.35;;;;;;;12.44;76.41;101821.53;5242980;28;20037;-76
2022/11/02 09:22:26;;;;;;;10.70;3.13;;;;;;;12.44;77.20;101822.38;5243536;28;20026;-76
2022/11/02 09:24:57;;;;;;;11.27;3.58;;;;;;;12.46;77.06;101828.50;5242841;28;20029;-76
2022/11/02 09:27:29;;;;;;;12.30;3.47;;;;;;;12.57;77.46;101832.94;5242871;28;20021;-72
2022/11/02 09:30:00;;;;;;;10.20;3.28;;;;;;;12.59;76.28;101833.50;5243236;28;20025;-75
2022/11/02 09:32:32;;;;;;;20.35;3.97;;;;;;;12.52;76.33;101838.50;5243686;28;20064;-74
2022/11/02 09:35:07;;;;;;;9.65;3.80;;;;;;;12.50;76.43;101832.41;5242835;28;20053;-75
2022/11/02 09:37:38;;;;;;;10.05;2.78;;;;;;;12.58;76.68;101833.78;5243815;28;20037;-78
2022/11/02 09:40:10;;;;;;;14.35;4.15;;;;;;;12.64;76.83;101843.78;5242341;28;20343;-79
2022/11/02 09:43:00;;;;;;;13.50;3.38;;;;;;;12.75;76.99;101844.59;5243175;28;20491;-77
2022/11/02 09:45:55;;;;;;;15.55;4.35;;;;;;;12.86;76.15;101840.72;5243551;28;20026;-70
2022/11/02 09:48:35;;;;;;;17.08;5.15;;;;;;;12.90;76.08;101841.81;5243543;28;20101;-73
2022/11/02 09:51:37;;;;;;;12.77;3.60;;;;;;;13.01;75.11;101842.59;5243576;28;20112;-80
2022/11/02 09:54:17;;;;;;;17.13;4.90;;;;;;;12.93;74.66;101851.53;5228605;28;20484;-72
2022/11/02 09:56:50;;;;;;;11.52;3.00;;;;;;;12.88;75.07;101846.81;5243328;28;20087;-81
2022/11/02 09:59:24;;;;;;;12.93;3.80;;;;;;;12.93;74.09;101851.53;5243695;28;20025;-72
2022/11/02 10:02:04;;;;;;;9.98;3.25;;;;;;;13.00;73.86;101847.34;5242419;28;20388;-73
2022/11/02 10:04:44;;;;;;;10.07;3.22;;;;;;;12.99;73.41;101850.44;5247296;28;20071;-70
2022/11/02 10:07:47;;;;;;;16.35;3.10;;;;;;;13.07;73.01;101857.38;5243869;28;20385;-67
2022/11/02 10:10:30;;;;;;;12.55;4.05;;;;;;;13.08;73.25;101864.59;5213009;28;20043;-68
2022/11/02 10:13:24;;;;;;;13.70;3.83;;;;;;;13.15;72.55;101865.16;5241441;28;20473;-67
2022/11/02 10:16:02;;;;;;;8.70;3.30;;;;;;;13.20;72.03;101873.50;5239521;28;20526;-65
2022/11/02 10:18:36;;;;;;;12.32;3.17;;;;;;;13.19;71.93;101867.09;5242471;28;20044;-69
2022/11/02 10:21:12;;;;;;;39.53;20.92;;;;;;;13.19;72.39;101869.03;5241643;28;20049;-70
2022/11/02 10:23:51;;;;;;;15.90;9.05;;;;;;;13.25;71.10;101887.41;5240769;28;20025;-66
2022/11/02 10:26:28;;;;;;;11.18;4.28;;;;;;;13.30;69.71;101883.81;5242068;28;20040;-72
2022/11/02 10:29:10;;;;;;;13.80;3.30;;;;;;;13.31;69.22;101879.91;5242309;28;20388;-75
2022/11/02 10:31:42;;;;;;;19.38;4.28;;;;;;;13.24;68.73;101882.94;5242136;28;20061;-75
2022/11/02 10:34:22;;;;;;;8.45;3.55;;;;;;;13.32;68.80;101881.56;5235850;28;20121;-70
2022/11/02 10:37:21;;;;;;;9.63;3.28;;;;;;;13.38;68.99;101875.69;5238879;28;20053;-71
2022/11/02 10:40:21;;;;;;;9.45;2.80;;;;;;;13.44;68.34;101877.34;5241648;28;20044;-72
2022/11/02 10:43:14;;;;;;;12.70;3.08;;;;;;;13.46;68.38;101885.41;5241970;28;20025;-81
2022/11/02 10:46:15;;;;;;;11.07;3.65;;;;;;;13.51;67.69;101887.38;5242520;28;20104;-71
2022/11/02 10:48:59;;;;;;;12.80;3.03;;;;;;;13.51;66.19;101884.56;5241584;28;20051;-74
2022/11/02 10:51:30;;;;;;;9.55;3.38;;;;;;;13.62;66.55;101891.75;5241221;28;20028;-68
2022/11/02 10:54:11;;;;;;;10.32;2.63;;;;;;;13.68;66.60;101885.06;5239463;28;20033;-69
2022/11/02 10:56:45;;;;;;;11.82;3.28;;;;;;;13.64;65.40;101884.78;5247498;28;20063;-70
2022/11/02 10:59:22;;;;;;;8.60;2.37;;;;;;;13.72;65.45;101886.16;5249388;28;20016;-73
2022/11/02 11:01:57;;;;;;;10.07;3.17;;;;;;;13.80;64.88;101888.34;5247175;28;20367;-75
2022/11/02 11:04:30;;;;;;;7.60;2.55;;;;;;;13.76;63.79;101898.41;5246402;28;20040;-70
2022/11/02 11:07:12;;;;;;;11.23;3.83;;;;;;;13.80;63.26;101898.66;5256258;28;20107;-70
2022/11/02 11:09:54;;;;;;;12.40;2.80;;;;;;;13.87;63.17;101893.63;5251080;28;20426;-68
2022/11/02 11:12:37;;;;;;;9.55;3.03;;;;;;;13.92;62.97;101899.16;5240813;28;20021;-77
2022/11/02 11:15:31;;;;;;;10.27;3.20;;;;;;;14.01;62.86;101894.66;5256382;28;20534;-69
2022/11/02 11:18:10;;;;;;;13.10;3.03;;;;;;;14.03;63.68;101897.97;5254715;28;20075;-73
2022/11/02 11:20:42;;;;;;;11.23;2.58;;;;;;;14.05;63.29;101903.28;5244994;28;20380;-71
2022/11/02 11:23:25;;;;;;;12.20;3.05;;;;;;;14.18;63.18;101907.38;5251631;28;20032;-68
2022/11/02 11:26:05;;;;;;;12.18;3.05;;;;;;;14.27;62.08;101900.91;5248687;28;20506;-69
2022/11/02 11:28:41;;;;;;;12.95;3.15;;;;;;;14.21;61.30;101899.25;5250259;28;20021;-68
2022/11/02 11:31:18;;;;;;;7.68;2.50;;;;;;;14.29;61.44;101890.31;5248957;28;20028;-68
2022/11/02 11:33:57;;;;;;;11.13;3.08;;;;;;;14.36;62.55;101895.53;5249032;28;20380;-69
2022/11/02 11:36:31;;;;;;;9.45;2.20;;;;;;;14.32;62.03;101894.47;5257260;28;20041;-69
2022/11/02 11:39:22;;;;;;;10.03;2.87;;;;;;;14.31;61.34;101878.84;5246339;28;20028;-68
2022/11/02 11:41:55;;;;;;;10.05;2.45;;;;;;;14.40;61.38;101879.06;5252763;28;20287;-68
2022/11/02 11:44:26;;;;;;;9.32;3.17;;;;;;;14.42;61.76;101871.22;5254439;28;20033;-68
2022/11/02 11:46:58;;;;;;;9.90;3.45;;;;;;;14.46;61.24;101872.31;5244453;28;20021;-69
2022/11/02 11:49:34;;;;;;;9.82;3.10;;;;;;;14.42;61.61;101882.38;5249882;28;20032;-68
2022/11/02 11:52:15;;;;;;;8.88;2.85;;;;;;;14.39;61.48;101874.59;5248010;28;20489;-69
2022/11/02 11:54:55;;;;;;;12.57;7.72;;;;;;;14.48;62.00;101884.03;5256799;28;20563;-69
2022/11/02 11:57:31;;;;;;;11.30;3.28;;;;;;;14.52;62.90;101890.69;5249006;28;20033;-69
2022/11/02 12:00:25;;;;;;;12.02;2.95;;;;;;;14.49;62.33;101891.25;5257426;28;20048;-68
2022/11/02 12:03:09;;;;;;;8.38;2.30;;;;;;;14.51;62.94;101886.22;5233832;28;20021;-68
2022/11/02 12:05:58;;;;;;;10.65;2.92;;;;;;;14.51;62.70;101894.59;5255329;28;20025;-68
2022/11/02 12:08:40;;;;;;;10.77;3.38;;;;;;;14.51;62.65;101880.66;5252955;28;20056;-68
2022/11/02 12:11:24;;;;;;;12.05;3.70;;;;;;;14.52;63.60;101883.16;5249296;28;20384;-68
2022/11/02 12:14:10;;;;;;;10.60;2.20;;;;;;;14.59;62.94;101877.25;5245515;28;20376;-68
2022/11/02 12:16:57;;;;;;;8.90;2.55;;;;;;;14.68;63.22;101867.13;5246565;28;20029;-67
2022/11/02 12:19:50;;;;;;;8.32;4.38;;;;;;;14.74;62.88;101868.75;5240012;28;20120;-67
2022/11/02 12:22:28;;;;;;;6.63;2.67;;;;;;;14.64;61.99;101863.25;5239334;28;20064;-68
2022/11/02 12:25:17;;;;;;;11.52;2.60;;;;;;;14.61;61.90;101849.88;5233662;28;20496;-69
2022/11/02 12:28:15;;;;;;;10.13;2.88;;;;;;;14.58;62.79;101842.09;5243856;28;20037;-68
2022/11/02 12:30:59;;;;;;;12.90;2.53;;;;;;;14.60;62.42;101847.38;5248905;28;20016;-69
2022/11/02 12:33:57;;;;;;;10.25;3.50;;;;;;;14.60;63.48;101839.00;5233054;28;20030;-68
2022/11/02 12:36:58;;;;;;;11.98;3.42;;;;;;;14.69;63.04;101842.84;5248228;28;20124;-68
2022/11/02 12:40:09;;;;;;;9.60;3.05;;;;;;;14.85;62.63;101844.34;5246181;28;20029;-69
2022/11/02 12:43:09;;;;;;;11.55;3.22;;;;;;;14.86;62.22;101834.84;5231686;28;20028;-69
2022/11/02 12:45:59;;;;;;;10.65;2.72;;;;;;;14.84;63.19;101833.50;5227203;28;20033;-69
2022/11/02 12:48:53;;;;;;;28.02;17.75;;;;;;;14.78;63.76;101841.09;5249765;28;20041;-69
2022/11/02 12:51:37;;;;;;;15.23;4.40;;;;;;;14.82;63.83;101833.78;5246294;28;20223;-69
2022/11/02 12:54:19;;;;;;;8.93;3.08;;;;;;;14.78;64.59;101843.88;5244004;28;20473;-69
2022/11/02 12:56:52;;;;;;;13.32;4.53;;;;;;;14.81;63.93;101834.09;5260372;28;20013;-69
2022/11/02 12:59:27;;;;;;;14.00;3.50;;;;;;;14.79;63.75;101837.97;5249303;28;20020;-69
2022/11/02 13:02:32;;;;;;;12.52;3.00;;;;;;;14.90;63.99;101821.13;5248116;28;20076;-70
2022/11/02 13:05:20;;;;;;;9.32;3.50;;;;;;;14.99;63.46;101824.94;5240512;28;20531;-68
2022/11/02 13:08:13;;;;;;;12.93;3.65;;;;;;;14.98;63.64;101826.06;5255453;28;20036;-70
2022/11/02 13:10:49;;;;;;;11.40;3.75;;;;;;;15.02;63.40;101820.72;5247877;28;20029;-68
2022/11/02 13:13:32;;;;;;;10.00;2.90;;;;;;;15.06;62.76;101819.84;5256736;28;20026;-69
2022/11/02 13:16:06;;;;;;;9.65;3.65;;;;;;;15.18;62.99;101808.25;5257196;28;20024;-70
2022/11/02 13:18:49;;;;;;;8.23;2.80;;;;;;;15.18;62.86;101808.25;5246635;28;20029;-70
2022/11/02 13:21:31;;;;;;;14.27;3.53;;;;;;;15.05;61.77;101806.16;5262625;28;20093;-70
2022/11/02 13:24:09;;;;;;;11.13;2.97;;;;;;;14.96;61.63;101803.19;5249052;28;20121;-69
2022/11/02 13:26:42;;;;;;;9.30;3.42;;;;;;;14.97;62.48;101802.88;5259339;28;20361;-70
2022/11/02 13:29:29;;;;;;;6.63;2.42;;;;;;;14.95;62.46;101801.53;5242861;28;20021;-69
2022/11/02 13:32:21;;;;;;;9.77;3.00;;;;;;;14.94;63.43;101792.31;5249930;28;20037;-69
2022/11/02 13:34:54;;;;;;;12.65;4.10;;;;;;;14.87;62.67;101783.44;5259392;28;20022;-71
2022/11/02 13:37:40;;;;;;;9.20;3.50;;;;;;;15.05;63.04;101789.41;5243918;28;20116;-70
2022/11/02 13:40:19;;;;;;;7.57;2.65;;;;;;;15.04;63.27;101788.59;5257614;28;20043;-71
2022/11/02 13:43:08;;;;;;;10.73;2.65;;;;;;;15.08;63.90;101791.59;5247509;28;20021;-70
2022/11/02 13:46:07;;;;;;;13.43;3.05;;;;;;;15.17;63.29;101793.44;5245360;28;20056;-68
2022/11/02 13:48:59;;;;;;;15.57;3.08;;;;;;;15.25;62.07;101793.94;5259476;28;20105;-69
2022/11/02 13:51:38;;;;;;;13.60;2.72;;;;;;;15.35;61.77;101793.78;5256432;28;20037;-69
2022/11/02 13:54:19;;;;;;;11.68;3.40;;;;;;;15.39;61.32;101789.25;5248239;28;20029;-70
2022/11/02 13:56:55;;;;;;;13.20;3.20;;;;;;;15.29;61.14;101790.25;5259468;28;20029;-69
2022/11/02 13:59:31;;;;;;;9.90;2.95;;;;;;;15.17;62.30;101787.03;5250647;28;20044;-69
2022/11/02 14:02:05;;;;;;;10.73;2.97;;;;;;;15.25;64.11;101777.16;5240851;28;20476;-69
2022/11/02 14:04:39;;;;;;;10.32;2.88;;;;;;;15.20;62.20;101781.66;5244270;28;20025;-70
2022/11/02 14:07:49;;;;;;;14.20;3.67;;;;;;;15.32;62.86;101780.44;5256583;28;20025;-69
2022/11/02 14:10:20;;;;;;;10.40;2.97;;;;;;;15.46;62.24;101769.34;5253647;28;20525;-71
2022/11/02 14:12:52;;;;;;;9.50;2.72;;;;;;;15.48;61.66;101770.69;5244881;28;20071;-70
2022/11/02 14:15:23;;;;;;;9.77;2.80;;;;;;;15.34;61.46;101775.34;5249408;28;20021;-70
2022/11/02 14:18:01;;;;;;;11.33;3.33;;;;;;;15.39;62.18;101766.88;5250100;28;20111;-69
2022/11/02 14:20:45;;;;;;;10.10;3.22;;;;;;;15.53;61.60;101765.03;5256778;28;20308;-71
2022/11/02 14:23:25;;;;;;;27.17;18.13;;;;;;;15.52;61.40;101766.19;5262271;28;20082;-71
2022/11/02 14:25:57;;;;;;;11.95;3.33;;;;;;;15.52;60.73;101759.72;5250529;28;20553;-70
2022/11/02 14:28:40;;;;;;;9.50;4.05;;;;;;;15.58;60.53;101762.16;5248139;28;20029;-71
2022/11/02 14:31:14;;;;;;;9.80;3.28;;;;;;;15.62;60.34;101760.44;5246396;28;20107;-71
2022/11/02 14:34:00;;;;;;;12.95;4.20;;;;;;;15.58;60.69;101764.97;5233344;28;20433;-70
2022/11/02 14:36:58;;;;;;;204.25;182.65;;;;;;;15.63;60.80;101758.47;5242441;28;20025;-71
2022/11/02 14:39:44;;;;;;;9.88;5.55;;;;;;;15.51;60.38;101761.69;5239069;28;20029;-71
2022/11/02 14:42:29;;;;;;;11.13;3.13;;;;;;;15.46;60.90;101749.75;5247419;28;20021;-71
2022/11/02 14:45:26;;;;;;;8.60;3.15;;;;;;;15.37;61.12;101749.63;5226445;28;20022;-71
2022/11/02 14:48:01;;;;;;;10.57;3.17;;;;;;;15.36;62.18;101745.97;5246612;28;20055;-69
2022/11/02 14:50:33;;;;;;;9.30;3.63;;;;;;;15.28;60.91;101745.81;5258445;28;20081;-70
2022/11/02 14:53:08;;;;;;;11.05;3.35;;;;;;;15.21;61.70;101749.81;5246989;28;20484;-70
2022/11/02 14:55:41;;;;;;;15.07;3.97;;;;;;;15.19;61.45;101740.91;5252266;28;20040;-71
2022/11/02 14:58:19;;;;;;;14.23;7.55;;;;;;;15.16;60.55;101735.91;5255897;28;20033;-71
2022/11/02 15:00:50;;;;;;;10.70;3.97;;;;;;;15.05;61.34;101734.38;5243352;28;20474;-70
2022/11/02 15:03:24;;;;;;;10.32;3.35;;;;;;;15.13;61.50;101742.06;5244579;28;20125;-70
2022/11/02 15:06:00;;;;;;;10.90;2.83;;;;;;;15.03;60.50;101730.22;5241920;28;20036;-69
2022/11/02 15:08:47;;;;;;;13.93;4.10;;;;;;;14.99;61.29;101729.97;5247274;28;20025;-70
2022/11/02 15:11:40;;;;;;;13.88;3.38;;;;;;;14.92;60.93;101723.91;5230857;28;20037;-69
2022/11/02 15:14:37;;;;;;;40.45;25.48;;;;;;;14.95;62.68;101723.31;5239808;28;20100;-70
2022/11/02 15:17:11;;;;;;;16.45;5.07;;;;;;;14.93;60.93;101709.66;5235757;28;20040;-70
2022/11/02 15:19:48;;;;;;;7.22;2.80;;;;;;;15.06;63.12;101712.84;5248990;28;20025;-70
2022/11/02 15:22:42;;;;;;;8.10;3.00;;;;;;;14.87;61.43;101710.00;5246498;28;20109;-70
2022/11/02 15:25:24;;;;;;;10.10;3.72;;;;;;;14.82;61.18;101707.28;5230734;28;20056;-68
2022/11/02 15:28:05;;;;;;;12.73;2.70;;;;;;;14.77;61.00;101705.38;5249203;28;20025;-69
2022/11/02 15:30:42;;;;;;;13.73;3.78;;;;;;;14.69;60.87;101709.66;5243340;28;20129;-67
2022/11/02 15:33:32;;;;;;;8.98;3.20;;;;;;;14.67;60.47;101711.06;5246240;28;20052;-69
2022/11/02 15:36:07;;;;;;;8.55;3.25;;;;;;;14.67;60.53;101709.13;5247920;28;20079;-68
2022/11/02 15:38:39;;;;;;;11.25;2.47;;;;;;;14.62;60.24;101703.59;5256403;28;20029;-67
2022/11/02 15:41:21;;;;;;;8.65;3.17;;;;;;;14.62;61.16;101703.59;5246952;28;20033;-68
2022/11/02 15:44:34;;;;;;;10.15;4.20;;;;;;;14.61;60.49;101701.09;5249107;28;20037;-68
2022/11/02 15:47:16;;;;;;;9.20;3.10;;;;;;;14.51;60.57;101699.22;5243477;28;20425;-68
2022/11/02 15:50:04;;;;;;;8.50;3.20;;;;;;;14.46;60.72;101702.06;5251843;28;20037;-68
2022/11/02 15:52:53;;;;;;;9.48;3.00;;;;;;;14.40;60.90;101708.84;5242297;28;20021;-69
2022/11/02 15:55:46;;;;;;;11.35;2.97;;;;;;;14.38;61.63;101705.50;5243340;28;20036;-69
2022/11/02 15:58:37;;;;;;;10.10;3.08;;;;;;;14.37;62.06;101701.88;5241806;28;20058;-69
2022/11/02 16:01:25;;;;;;;9.05;3.15;;;;;;;14.28;61.62;101698.88;5243429;28;20049;-69
2022/11/02 16:04:02;;;;;;;8.43;2.70;;;;;;;14.34;62.16;101694.09;5236909;28;20024;-70
2022/11/02 16:06:36;;;;;;;13.07;3.30;;;;;;;14.24;62.23;101686.66;5256518;28;20053;-70
2022/11/02 16:09:31;;;;;;;8.68;2.83;;;;;;;14.30;62.22;101685.47;5260289;28;20025;-70
2022/11/02 16:12:20;;;;;;;10.20;2.83;;;;;;;14.25;62.12;101682.75;5256099;28;20076;-69
2022/11/02 16:15:13;;;;;;;11.55;3.00;;;;;;;14.20;61.95;101680.00;5256869;28;20021;-69
2022/11/02 16:17:51;;;;;;;9.88;3.83;;;;;;;14.15;62.23;101682.84;5240112;28;20022;-70
2022/11/02 16:20:26;;;;;;;10.65;2.80;;;;;;;14.09;62.30;101682.06;5240955;28;20029;-70
2022/11/02 16:22:59;;;;;;;10.00;4.13;;;;;;;14.10;62.43;101677.31;5244476;28;20051;-69
2022/11/02 16:25:40;;;;;;;17.40;4.53;;;;;;;14.11;63.04;101681.75;5265363;28;20491;-69
2022/11/02 16:28:21;;;;;;;9.68;3.70;;;;;;;14.07;62.81;101680.69;5249880;28;20030;-68
2022/11/02 16:30:56;;;;;;;8.32;3.40;;;;;;;14.12;63.15;101677.84;5260537;28;20014;-67
2022/11/02 16:33:31;;;;;;;6.45;2.42;;;;;;;14.31;65.98;101687.13;5253191;28;20105;-68
2022/11/02 16:36:03;;;;;;;17.63;3.58;;;;;;;14.11;62.86;101676.19;5252228;28;20120;-67
2022/11/02 16:38:35;;;;;;;8.93;3.40;;;;;;;14.28;65.42;101676.56;5255162;28;20041;-67
2022/11/02 16:41:08;;;;;;;5.88;2.88;;;;;;;14.29;64.96;101677.41;5259179;28;20025;-68
2022/11/02 16:43:42;;;;;;;7.68;3.50;;;;;;;14.12;63.96;101672.28;5254054;28;20028;-68
2022/11/02 16:46:16;;;;;;;9.88;3.30;;;;;;;14.05;62.50;101671.78;5263610;28;20033;-68
2022/11/02 16:49:21;;;;;;;9.93;3.88;;;;;;;14.05;63.04;101669.00;5259506;28;20044;-69
2022/11/02 16:51:55;;;;;;;6.90;2.85;;;;;;;14.00;62.95;101664.28;5243530;28;20041;-67
2022/11/02 16:54:32;;;;;;;8.27;3.58;;;;;;;14.11;64.45;101673.38;5244091;28;20025;-67
2022/11/02 16:57:25;;;;;;;11.23;4.43;;;;;;;14.00;63.75;101664.28;5258635;28;20481;-66
2022/11/02 17:00:08;;;;;;;8.23;3.67;;;;;;;13.94;63.84;101664.66;5255882;28;20136;-68
2022/11/02 17:02:49;;;;;;;12.93;3.92;;;;;;;13.87;62.89;101671.38;5248632;28;20026;-67
2022/11/02 17:05:24;;;;;;;11.13;3.90;;;;;;;13.84;62.51;101671.97;5249995;28;20377;-68
2022/11/02 17:08:09;;;;;;;11.95;4.47;;;;;;;13.87;63.55;101659.38;5246849;28;20087;-73
2022/11/02 17:10:43;;;;;;;8.25;4.18;;;;;;;13.79;62.17;101663.63;5259013;28;20056;-73
2022/11/02 17:13:16;;;;;;;8.93;3.70;;;;;;;13.68;62.59;101670.44;5255171;28;20061;-73
2022/11/02 17:15:50;;;;;;;14.63;6.00;;;;;;;13.71;62.70;101669.84;5253063;28;20400;-73
2022/11/02 17:18:24;;;;;;;10.73;3.75;;;;;;;13.63;62.75;101670.47;5258006;28;20032;-73
2022/11/02 17:21:15;;;;;;;11.18;3.28;;;;;;;13.66;62.74;101672.69;5238760;28;20040;-74
2022/11/02 17:23:47;;;;;;;12.18;6.40;;;;;;;13.64;62.32;101666.56;5257345;28;20388;-73
2022/11/02 17:26:21;;;;;;;10.00;3.60;;;;;;;13.46;62.79;101670.88;5245477;28;20031;-71
2022/11/02 17:29:16;;;;;;;8.95;3.90;;;;;;;13.42;62.10;101662.25;5260184;28;20070;-71
2022/11/02 17:31:52;;;;;;;10.82;3.20;;;;;;;13.37;62.61;101667.88;5253907;28;20459;-71
